createdAt,value
2022-12-03T00:00:12.526Z,68.20
2022-12-03T00:05:15.685Z,72.17
2022-12-03T00:10:18.108Z,68.00
2022-12-03T00:15:20.974Z,70.87
2022-12-03T00:20:24.543Z,71.53
2022-12-03T00:25:27.007Z,61.87
2022-12-03T00:30:29.411Z,68.17
2022-12-03T00:35:31.799Z,68.80
2022-12-03T00:40:34.985Z,73.50
2022-12-03T00:45:37.393Z,73.57
2022-12-03T00:50:39.777Z,84.80
2022-12-03T00:55:42.200Z,75.00
2022-12-03T01:00:44.743Z,81.37
2022-12-03T01:05:47.128Z,92.20
2022-12-03T01:10:49.570Z,79.63
2022-12-03T01:15:52.215Z,85.67
2022-12-03T01:20:54.644Z,92.50
2022-12-03T01:25:57.025Z,82.90
2022-12-03T01:31:18.039Z,77.87
2022-12-03T01:36:20.517Z,77.40
2022-12-03T01:41:24.613Z,81.63
2022-12-03T01:46:37.486Z,78.17
2022-12-03T01:51:39.985Z,74.70
2022-12-03T01:56:42.607Z,75.13
2022-12-03T02:01:45.167Z,81.83
2022-12-03T02:06:47.761Z,86.40
2022-12-03T02:11:50.747Z,84.27
2022-12-03T02:16:53.580Z,81.33
2022-12-03T02:22:23.281Z,83.63
2022-12-03T02:27:28.464Z,75.83
2022-12-03T02:32:31.085Z,86.77
2022-12-03T02:37:35.697Z,78.33
2022-12-03T02:42:38.856Z,76.83
2022-12-03T02:47:56.933Z,84.30
2022-12-03T02:53:02.969Z,76.23
2022-12-03T02:58:05.969Z,74.83
2022-12-03T03:03:08.864Z,66.97
2022-12-03T03:08:12.427Z,68.23
2022-12-03T03:13:17.303Z,69.27
2022-12-03T03:18:20.373Z,72.60
2022-12-03T03:23:24.564Z,74.60
2022-12-03T03:28:29.149Z,68.77
2022-12-03T03:33:32.584Z,79.43
2022-12-03T03:38:36.631Z,74.13
2022-12-03T03:43:43.050Z,78.77
2022-12-03T03:48:45.986Z,84.53
2022-12-03T03:53:49.820Z,80.37
2022-12-03T03:58:52.302Z,80.67
2022-12-03T04:03:54.998Z,90.07
2022-12-03T04:08:57.445Z,83.70
2022-12-03T04:13:59.883Z,77.90
2022-12-03T04:19:02.589Z,76.07
2022-12-03T04:24:06.731Z,78.80
2022-12-03T04:29:09.257Z,79.33
2022-12-03T04:34:30.281Z,73.03
2022-12-03T04:39:32.942Z,77.40
2022-12-03T04:44:38.550Z,73.93
2022-12-03T04:49:46.120Z,70.33
2022-12-03T04:54:48.524Z,68.43
2022-12-03T04:59:50.935Z,71.77
2022-12-03T05:04:53.622Z,67.40
2022-12-03T05:09:56.250Z,63.93
2022-12-03T05:14:58.640Z,66.73
2022-12-03T05:20:19.613Z,62.60
2022-12-03T05:25:21.983Z,61.03
2022-12-03T05:30:24.527Z,69.00
2022-12-03T05:35:27.002Z,66.53
2022-12-03T05:40:29.424Z,64.33
2022-12-03T05:45:40.463Z,59.67
2022-12-03T05:50:45.034Z,61.57
2022-12-03T05:55:50.150Z,56.63
2022-12-03T06:00:52.623Z,55.77
2022-12-03T06:05:55.062Z,58.73
2022-12-03T06:10:57.445Z,63.20
2022-12-03T06:15:59.903Z,67.13
2022-12-03T06:21:02.577Z,70.07
2022-12-03T06:26:05.133Z,65.73
2022-12-03T06:31:07.631Z,67.47
2022-12-03T06:36:10.189Z,62.80
2022-12-03T06:41:12.563Z,68.63
2022-12-03T06:46:15.017Z,61.60
2022-12-03T06:51:17.473Z,67.80
2022-12-03T06:56:22.274Z,63.80
2022-12-03T07:01:25.207Z,61.87
2022-12-03T07:06:27.646Z,61.43
2022-12-03T07:11:32.877Z,70.90
2022-12-03T07:16:36.179Z,56.57
2022-12-03T07:21:38.681Z,66.90
2022-12-03T07:26:41.074Z,63.93
2022-12-03T07:31:43.623Z,57.60
2022-12-03T07:36:46.026Z,63.17
2022-12-03T07:41:48.375Z,57.97
2022-12-03T07:46:50.946Z,62.40
2022-12-03T07:51:54.395Z,62.10
2022-12-03T07:57:01.396Z,66.40
2022-12-03T08:02:04.456Z,59.47
2022-12-03T08:07:06.961Z,91.03
2022-12-03T08:12:18.482Z,91.13
2022-12-03T08:17:28.878Z,68.67
2022-12-03T08:22:31.906Z,75.97
2022-12-03T08:27:34.337Z,74.97
2022-12-03T08:32:36.756Z,64.30
2022-12-03T08:37:39.278Z,67.30
2022-12-03T08:42:41.728Z,69.97
2022-12-03T08:47:44.840Z,62.03
2022-12-03T08:52:47.221Z,70.63
2022-12-03T08:57:49.706Z,76.20
2022-12-03T09:02:54.743Z,70.67
2022-12-03T09:07:57.176Z,80.20
2022-12-03T09:12:59.630Z,78.67
2022-12-03T09:18:02.108Z,75.77
2022-12-03T09:23:05.671Z,100.10
2022-12-03T09:28:08.340Z,77.83
2022-12-03T09:33:10.861Z,72.73
2022-12-03T09:38:13.318Z,79.60
2022-12-03T09:43:16.592Z,75.20
2022-12-03T09:48:19.739Z,76.50
2022-12-03T09:53:25.962Z,86.67
2022-12-03T09:58:34.369Z,77.43
2022-12-03T10:03:41.164Z,79.87
2022-12-03T10:08:46.165Z,85.53
2022-12-03T10:13:50.068Z,83.37
2022-12-03T10:18:59.289Z,94.67
2022-12-03T10:24:17.629Z,90.07
2022-12-03T10:29:22.680Z,89.17
2022-12-03T10:34:37.603Z,86.80
2022-12-03T10:39:56.005Z,86.87
2022-12-03T10:45:12.254Z,87.23
2022-12-03T10:50:18.245Z,90.30
2022-12-03T10:55:20.773Z,82.30
2022-12-03T11:00:23.633Z,86.23
2022-12-03T11:05:28.342Z,76.60
2022-12-03T11:10:30.943Z,86.40
2022-12-03T11:15:45.170Z,88.17
2022-12-03T11:20:47.610Z,91.00
2022-12-03T11:25:50.656Z,102.70
2022-12-03T11:30:56.845Z,104.20
2022-12-03T11:36:08.236Z,95.03
2022-12-03T11:41:30.868Z,108.10
2022-12-03T11:46:36.336Z,157.03
2022-12-03T11:51:43.221Z,112.60
2022-12-03T11:56:49.045Z,93.37
2022-12-03T12:01:51.484Z,104.97
2022-12-03T12:06:53.924Z,101.33
2022-12-03T12:11:56.354Z,107.60
2022-12-03T12:17:03.252Z,115.07
2022-12-03T12:22:19.589Z,126.93
2022-12-03T12:27:35.908Z,101.57
2022-12-03T12:32:52.397Z,102.03
2022-12-03T12:38:11.440Z,104.57
2022-12-03T12:43:26.202Z,102.30
2022-12-03T12:48:33.818Z,106.47
2022-12-03T12:53:38.850Z,121.80
2022-12-03T12:58:42.113Z,157.10
2022-12-03T13:03:44.519Z,129.27
2022-12-03T13:08:50.245Z,122.03
2022-12-03T13:13:52.954Z,118.80
2022-12-03T13:18:57.416Z,124.77
2022-12-03T13:24:01.005Z,119.97
2022-12-03T13:29:13.434Z,120.03
2022-12-03T13:34:25.803Z,145.10
2022-12-03T13:39:32.498Z,161.67
2022-12-03T13:44:40.635Z,158.90
2022-12-03T13:49:55.057Z,162.17
2022-12-03T13:54:57.766Z,209.00
2022-12-03T14:00:00.205Z,177.40
2022-12-03T14:05:03.223Z,140.57
2022-12-03T14:10:11.405Z,141.00
2022-12-03T14:15:13.810Z,165.00
2022-12-03T14:20:16.568Z,160.80
2022-12-03T14:25:18.991Z,138.80
2022-12-03T14:30:22.385Z,130.10
2022-12-03T14:35:24.786Z,170.73
2022-12-03T14:40:27.583Z,151.53
2022-12-03T14:45:30.591Z,125.40
2022-12-03T14:50:33.003Z,125.50
2022-12-03T14:55:35.429Z,128.97
2022-12-03T15:00:37.927Z,138.13
2022-12-03T15:05:42.267Z,144.63
2022-12-03T15:10:44.606Z,130.43
2022-12-03T15:15:47.050Z,124.87
2022-12-03T15:20:49.824Z,161.30
2022-12-03T15:25:52.226Z,115.03
2022-12-03T15:30:54.736Z,118.00
2022-12-03T15:35:57.618Z,139.43
2022-12-03T15:41:19.958Z,142.37
2022-12-03T15:46:23.097Z,155.33
2022-12-03T15:51:25.633Z,145.40
2022-12-03T15:56:28.013Z,141.73
2022-12-03T16:01:30.439Z,123.27
2022-12-03T16:06:51.448Z,125.00
2022-12-03T16:11:53.892Z,121.73
2022-12-03T16:16:56.397Z,132.53
2022-12-03T16:21:58.823Z,140.47
2022-12-03T16:27:01.272Z,127.80
2022-12-03T16:32:03.923Z,142.23
2022-12-03T16:37:06.498Z,147.33
2022-12-03T16:42:16.167Z,140.77
2022-12-03T16:47:21.630Z,154.90
2022-12-03T16:52:24.900Z,132.53
2022-12-03T16:57:33.178Z,148.07
2022-12-03T17:02:36.262Z,166.17
2022-12-03T17:07:38.796Z,148.67
2022-12-03T17:13:08.265Z,209.60
2022-12-03T17:18:03.750Z,184.03
2022-12-03T17:23:06.360Z,178.10
2022-12-03T17:28:08.788Z,200.10
2022-12-03T17:33:13.143Z,163.37
2022-12-03T17:38:16.443Z,156.40
2022-12-03T17:43:18.796Z,153.57
2022-12-03T17:48:21.275Z,152.97
2022-12-03T17:53:24.250Z,149.33
2022-12-03T17:58:27.740Z,166.33
2022-12-03T18:03:30.546Z,154.10
2022-12-03T18:08:32.978Z,158.80
2022-12-03T18:13:35.324Z,160.20
2022-12-03T18:18:37.666Z,164.40
2022-12-03T18:23:40.645Z,171.23
2022-12-03T18:28:43.080Z,160.47
2022-12-03T18:33:46.239Z,174.67
2022-12-03T18:38:52.113Z,143.50
2022-12-03T18:43:54.653Z,149.40
2022-12-03T18:48:57.079Z,198.33
2022-12-03T18:53:59.427Z,159.07
2022-12-03T18:59:02.766Z,180.43
2022-12-03T19:04:05.257Z,159.13
2022-12-03T19:09:07.645Z,155.30
2022-12-03T19:14:11.163Z,160.60
2022-12-03T19:19:13.560Z,156.80
2022-12-03T19:24:24.171Z,164.43
2022-12-03T19:29:27.470Z,152.10
2022-12-03T19:34:30.369Z,160.27
2022-12-03T19:39:33.293Z,152.37
2022-12-03T19:44:35.853Z,151.90
2022-12-03T19:49:38.232Z,151.97
2022-12-03T19:54:40.635Z,154.40
2022-12-03T19:59:43.185Z,153.43
2022-12-03T20:04:45.655Z,156.50
2022-12-03T20:09:50.516Z,158.60
2022-12-03T20:14:52.895Z,154.67
2022-12-03T20:19:55.601Z,176.67
2022-12-03T20:24:58.218Z,166.20
2022-12-03T20:30:00.640Z,145.50
2022-12-03T20:35:03.985Z,156.80
2022-12-03T20:40:07.021Z,150.00
2022-12-03T20:45:09.966Z,142.07
2022-12-03T20:50:12.382Z,145.67
2022-12-03T20:55:14.841Z,140.73
2022-12-03T21:00:17.522Z,145.03
2022-12-03T21:05:20.375Z,133.23
2022-12-03T21:10:41.346Z,135.30
2022-12-03T21:15:45.014Z,146.20
2022-12-03T21:20:47.975Z,142.10
2022-12-03T21:25:50.369Z,126.93
2022-12-03T21:30:52.900Z,131.63
2022-12-03T21:35:56.295Z,130.37
2022-12-03T21:40:59.255Z,137.37
2022-12-03T21:47:11.454Z,130.37
2022-12-03T21:51:28.886Z,128.80
2022-12-03T21:56:31.993Z,127.70
2022-12-03T22:01:34.421Z,124.20
2022-12-03T22:06:36.823Z,125.73
2022-12-03T22:11:39.337Z,126.17
2022-12-03T22:16:41.732Z,134.17
2022-12-03T22:21:44.144Z,125.20
2022-12-03T22:26:47.580Z,120.67
2022-12-03T22:31:50.097Z,143.27
2022-12-03T22:36:52.702Z,128.03
2022-12-03T22:41:55.149Z,127.43
2022-12-03T22:46:57.535Z,121.40
2022-12-03T22:52:00.126Z,126.33
2022-12-03T22:57:02.651Z,122.63
2022-12-03T23:02:05.062Z,124.93
2022-12-03T23:07:08.418Z,126.03
2022-12-03T23:12:10.787Z,132.53
2022-12-03T23:17:13.149Z,131.60
2022-12-03T23:22:15.572Z,132.43
2022-12-03T23:27:17.994Z,131.77
2022-12-03T23:32:20.315Z,129.67
2022-12-03T23:37:24.213Z,129.07
2022-12-03T23:42:26.587Z,141.97
2022-12-03T23:47:28.987Z,133.93
2022-12-03T23:52:31.504Z,142.37
2022-12-03T23:57:34.876Z,125.23
